Time;durP1;ratioP1;P1;durP2;ratioP2;P2;SDS_P1;SDS_P2;PMS_P1;PMS_P2;Temp;Humidity;BMP_temperature;BMP_pressure;BME280_temperature;BME280_humidity;BME280_pressure;Samples;Min_cycle;Max_cycle;Signal;HPM_P1;HPM_P2
2023/05/26 00:02:19;;;;;;;12.50;8.60;;;;;;;19.13;60.23;99933.72;4287281;33;33994;-83
2023/05/26 00:04:44;;;;;;;15.90;9.85;;;;;;;19.05;60.22;99936.00;4288345;33;20109;-83
2023/05/26 00:07:10;;;;;;;17.27;8.77;;;;;;;19.22;60.23;99935.78;4287637;33;20157;-82
2023/05/26 00:09:36;;;;;;;14.25;9.20;;;;;;;19.21;60.23;99934.09;4275939;33;20093;-82
2023/05/26 00:12:01;;;;;;;13.95;8.93;;;;;;;19.13;60.22;99938.16;4275765;33;20108;-83
2023/05/26 00:14:27;;;;;;;17.52;9.43;;;;;;;19.08;60.23;99933.16;4287732;33;20532;-83
2023/05/26 00:16:53;;;;;;;14.32;9.48;;;;;;;19.12;60.23;99936.44;4287588;33;20197;-83
2023/05/26 00:19:21;;;;;;;14.40;10.18;;;;;;;18.91;60.21;99934.22;4264212;33;20100;-83
2023/05/26 00:21:46;;;;;;;16.10;9.77;;;;;;;19.06;60.22;99934.22;4287541;33;20615;-83
2023/05/26 00:24:12;;;;;;;13.70;10.35;;;;;;;19.10;60.23;99935.72;4275919;33;20165;-83
2023/05/26 00:26:37;;;;;;;18.30;10.70;;;;;;;19.02;60.23;99938.84;4275749;33;21288;-83
2023/05/26 00:29:02;;;;;;;17.70;10.65;;;;;;;19.01;60.23;99934.50;4289267;33;20550;-82
2023/05/26 00:31:29;;;;;;;14.60;9.98;;;;;;;19.02;60.22;99934.41;4289002;33;20129;-82
2023/05/26 00:33:54;;;;;;;15.65;10.07;;;;;;;18.88;60.21;99936.22;4277561;33;20113;-82
2023/05/26 00:36:20;;;;;;;16.00;11.32;;;;;;;18.62;60.20;99933.44;4289073;33;22377;-82
2023/05/26 00:38:45;;;;;;;18.65;10.50;;;;;;;18.70;60.21;99935.62;4288729;33;29642;-82
2023/05/26 00:41:11;;;;;;;15.85;10.35;;;;;;;18.69;60.21;99934.78;4289079;33;20097;-82
2023/05/26 00:43:36;;;;;;;15.57;10.43;;;;;;;18.64;60.20;99938.59;4289672;33;20515;-83
2023/05/26 00:46:01;;;;;;;17.20;10.88;;;;;;;18.56;60.20;99941.69;4288662;33;35727;-82
2023/05/26 00:48:27;;;;;;;17.05;10.65;;;;;;;18.65;60.20;99937.66;4288879;33;36954;-82
2023/05/26 00:50:52;;;;;;;19.40;10.80;;;;;;;18.57;60.20;99929.38;4289059;33;20128;-83
2023/05/26 00:53:18;;;;;;;16.48;10.50;;;;;;;18.60;60.20;99927.38;4289664;33;20132;-82
2023/05/26 00:55:44;;;;;;;13.98;9.80;;;;;;;18.40;60.19;99925.97;4289159;33;20136;-83
2023/05/26 00:58:10;;;;;;;17.95;10.10;;;;;;;18.44;60.19;99929.25;4277735;33;20115;-82
2023/05/26 01:00:36;;;;;;;15.70;10.27;;;;;;;18.54;60.19;99924.28;4289147;33;20121;-82
2023/05/26 01:03:02;;;;;;;17.35;10.82;;;;;;;18.35;60.18;99921.94;4289404;33;20167;-83
2023/05/26 01:05:27;;;;;;;17.08;10.35;;;;;;;18.52;60.19;99911.19;4289267;33;20100;-83
2023/05/26 01:07:53;;;;;;;16.80;9.60;;;;;;;18.42;60.19;99921.44;4288931;33;24297;-82
2023/05/26 01:10:18;;;;;;;15.73;9.98;;;;;;;18.35;60.18;99924.56;4289288;33;20146;-82
2023/05/26 01:12:56;;;;;;;15.57;9.30;;;;;;;18.31;60.19;99918.63;4288561;33;24859;-82
2023/05/26 01:15:25;;;;;;;14.68;10.18;;;;;;;18.27;60.18;99921.56;4289238;33;20108;-83
2023/05/26 01:17:55;;;;;;;13.70;9.38;;;;;;;18.31;60.19;99920.44;4289284;33;20105;-83
2023/05/26 01:20:20;;;;;;;;;;;;;;;18.31;60.19;99913.38;4290921;33;20104;-83
2023/05/26 01:22:48;;;;;;;15.83;10.03;;;;;;;18.27;60.18;99924.19;4289476;33;20318;-82
2023/05/26 01:25:46;;;;;;;15.85;10.43;;;;;;;18.07;60.16;99922.75;4290669;33;20201;-82
2023/05/26 01:28:22;;;;;;;15.45;9.57;;;;;;;18.23;60.18;99917.44;4289105;33;20442;-82
2023/05/26 01:30:48;;;;;;;16.05;9.65;;;;;;;18.12;60.17;99915.41;4277351;33;20127;-83
2023/05/26 01:33:14;;;;;;;14.23;9.02;;;;;;;18.18;60.18;99919.47;4288376;33;20104;-83
2023/05/26 01:35:39;;;;;;;14.52;9.25;;;;;;;17.99;60.16;99917.13;4277610;33;20132;-83
2023/05/26 01:38:05;;;;;;;17.33;9.90;;;;;;;18.18;60.18;99916.81;4276119;33;20120;-83
2023/05/26 01:40:30;;;;;;;15.63;10.45;;;;;;;17.92;60.17;99916.59;4276739;33;37133;-83
2023/05/26 01:43:00;;;;;;;16.50;9.95;;;;;;;17.95;60.16;99919.06;4288862;33;20157;-82
2023/05/26 01:45:26;;;;;;;14.50;9.85;;;;;;;17.83;60.15;99921.59;4277244;33;20112;-80
2023/05/26 01:47:57;;;;;;;15.80;9.85;;;;;;;17.82;60.15;99915.47;4277167;33;20105;-82
2023/05/26 01:50:26;;;;;;;16.80;9.57;;;;;;;17.94;60.17;99914.72;4277480;33;20153;-83
2023/05/26 01:52:52;;;;;;;14.55;10.90;;;;;;;17.98;60.16;99910.13;4265016;33;20151;-82
2023/05/26 01:55:17;;;;;;;14.10;8.85;;;;;;;17.78;60.16;99900.81;4288685;33;20123;-82
2023/05/26 01:57:43;;;;;;;13.90;9.70;;;;;;;17.64;60.15;99911.25;4288134;33;32192;-83
2023/05/26 02:00:12;;;;;;;17.77;11.40;;;;;;;17.55;60.15;99917.91;4276875;33;20096;-83
2023/05/26 02:02:37;;;;;;;16.83;9.88;;;;;;;17.68;60.15;99915.44;4288946;33;20209;-82
2023/05/26 02:05:03;;;;;;;15.30;9.60;;;;;;;17.83;60.15;99918.97;4277090;33;20185;-82
2023/05/26 02:07:29;;;;;;;15.90;9.90;;;;;;;17.79;60.16;99918.28;4289291;33;20160;-82
2023/05/26 02:09:55;;;;;;;17.15;10.73;;;;;;;17.66;60.15;99918.13;4289082;33;20137;-82
2023/05/26 02:12:20;;;;;;;19.27;10.32;;;;;;;17.72;60.15;99914.31;4288896;33;20513;-83
2023/05/26 02:14:45;;;;;;;16.12;10.10;;;;;;;17.54;60.13;99915.38;4288838;33;20665;-82
2023/05/26 02:17:11;;;;;;;15.48;9.55;;;;;;;17.47;60.14;99906.97;4288700;33;20148;-82
2023/05/26 02:19:36;;;;;;;15.48;10.30;;;;;;;17.40;60.14;99913.53;4288104;33;37387;-83
2023/05/26 02:22:02;;;;;;;18.00;10.40;;;;;;;17.15;60.12;99916.69;4290099;33;20160;-83
2023/05/26 02:24:27;;;;;;;14.77;10.25;;;;;;;17.26;60.13;99919.56;4288948;33;20108;-83
2023/05/26 02:26:52;;;;;;;15.48;10.18;;;;;;;17.44;60.13;99910.63;4288427;33;25171;-83
2023/05/26 02:29:18;;;;;;;15.32;10.10;;;;;;;17.32;60.13;99911.34;4288948;33;20148;-83
2023/05/26 02:31:43;;;;;;;18.02;10.25;;;;;;;17.40;60.14;99911.75;4288418;33;20122;-83
2023/05/26 02:34:10;;;;;;;15.18;10.18;;;;;;;17.33;60.13;99917.44;4288195;33;26677;-83
2023/05/26 02:36:36;;;;;;;16.83;10.40;;;;;;;17.26;60.13;99923.97;4289988;33;20544;-83
2023/05/26 02:39:01;;;;;;;21.33;10.55;;;;;;;17.32;60.13;99918.38;4288459;33;20136;-84
2023/05/26 02:41:26;;;;;;;18.20;11.50;;;;;;;17.24;60.12;99915.31;4287962;33;20104;-83
2023/05/26 02:43:52;;;;;;;17.73;11.10;;;;;;;17.58;60.14;99907.19;4288531;33;20117;-83
2023/05/26 02:46:17;;;;;;;19.37;11.98;;;;;;;17.32;60.13;99916.59;4287085;33;20147;-83
2023/05/26 02:48:43;;;;;;;22.40;11.27;;;;;;;17.30;60.13;99918.47;4286062;33;20184;-84
2023/05/26 02:51:08;;;;;;;18.80;11.88;;;;;;;17.11;60.12;99923.06;4282526;33;20913;-83
2023/05/26 02:53:34;;;;;;;19.85;11.23;;;;;;;17.57;60.14;99921.31;4273733;33;29353;-83
2023/05/26 02:55:59;;;;;;;23.05;12.75;;;;;;;17.21;60.12;99918.13;4288702;33;20119;-83
2023/05/26 02:58:25;;;;;;;22.60;11.52;;;;;;;17.21;60.12;99924.22;4288695;33;20088;-83
2023/05/26 03:00:50;;;;;;;17.80;11.55;;;;;;;16.98;60.11;99925.53;4267002;33;20136;-83
2023/05/26 03:03:16;;;;;;;20.65;11.68;;;;;;;16.95;60.11;99925.69;4288889;33;20423;-84
2023/05/26 03:05:41;;;;;;;21.92;13.00;;;;;;;17.10;60.12;99932.75;4288241;33;20128;-84
2023/05/26 03:08:07;;;;;;;18.23;11.68;;;;;;;17.00;60.12;99931.53;4276540;33;20108;-83
2023/05/26 03:10:32;;;;;;;18.25;12.40;;;;;;;16.94;60.11;99931.87;4276059;33;22381;-83
2023/05/26 03:12:58;;;;;;;20.98;13.07;;;;;;;17.06;60.11;99930.38;4288519;33;20171;-83
2023/05/26 03:15:24;;;;;;;18.02;12.02;;;;;;;17.02;60.12;99934.94;4276253;33;20177;-83
2023/05/26 03:17:50;;;;;;;20.65;11.65;;;;;;;17.33;60.13;99930.59;4288714;33;20097;-83
2023/05/26 03:20:16;;;;;;;18.10;11.38;;;;;;;17.27;60.12;99933.56;4288616;33;20105;-83
2023/05/26 03:22:41;;;;;;;17.80;12.25;;;;;;;17.13;60.11;99931.72;4288656;33;20383;-83
2023/05/26 03:25:07;;;;;;;19.25;11.93;;;;;;;17.10;60.12;99937.16;4287586;33;26825;-83
2023/05/26 03:27:32;;;;;;;17.73;12.30;;;;;;;17.18;60.12;99933.16;4288349;33;20143;-82
2023/05/26 03:29:58;;;;;;;20.73;12.20;;;;;;;17.46;60.14;99935.06;4276371;33;20113;-83
2023/05/26 03:32:23;;;;;;;21.73;12.05;;;;;;;17.49;60.14;99934.88;4270653;33;37917;-83
2023/05/26 03:34:48;;;;;;;19.58;12.18;;;;;;;17.66;60.15;99940.97;4267123;33;20092;-82
2023/05/26 03:37:15;;;;;;;21.10;12.35;;;;;;;17.58;60.14;99948.47;4276692;33;20453;-83
2023/05/26 03:39:41;;;;;;;19.70;11.70;;;;;;;17.63;60.15;99944.62;4288488;33;20157;-83
2023/05/26 03:42:06;;;;;;;21.52;12.57;;;;;;;17.63;60.14;99938.50;4276707;33;20507;-83
2023/05/26 03:44:32;;;;;;;22.20;12.75;;;;;;;17.71;60.15;99942.41;4288036;33;20374;-82
2023/05/26 03:46:57;;;;;;;18.45;11.68;;;;;;;17.75;60.15;99937.84;4276124;33;20131;-83
2023/05/26 03:49:22;;;;;;;20.40;11.65;;;;;;;17.89;60.15;99937.03;4276213;33;20189;-83
2023/05/26 03:51:48;;;;;;;16.58;11.18;;;;;;;18.08;60.17;99933.19;4288222;33;33691;-82
2023/05/26 03:54:13;;;;;;;21.50;11.65;;;;;;;18.12;60.17;99944.41;4287020;33;34487;-82
2023/05/26 03:56:39;;;;;;;20.75;11.82;;;;;;;18.12;60.17;99938.28;4287414;33;30268;-83
2023/05/26 03:59:04;;;;;;;19.98;11.38;;;;;;;18.20;60.17;99931.59;4287945;33;20088;-83
2023/05/26 04:01:30;;;;;;;22.52;12.30;;;;;;;18.23;60.18;99939.34;4288235;33;20131;-83
2023/05/26 04:03:55;;;;;;;19.50;12.32;;;;;;;18.39;60.19;99940.09;4289614;33;20100;-83
2023/05/26 04:06:22;;;;;;;17.75;12.32;;;;;;;18.50;60.19;99942.09;4289483;33;20100;-84
2023/05/26 04:08:48;;;;;;;19.00;13.18;;;;;;;18.50;60.19;99934.19;4289938;33;20119;-83
2023/05/26 04:11:14;;;;;;;18.77;12.77;;;;;;;18.66;60.20;99937.56;4289401;33;20129;-81
2023/05/26 04:13:39;;;;;;;20.90;12.98;;;;;;;18.51;60.19;99940.28;4289514;33;20092;-82
2023/05/26 04:16:05;;;;;;;21.00;12.93;;;;;;;18.52;60.19;99940.19;4289005;33;22453;-83
2023/05/26 04:18:31;;;;;;;18.40;12.68;;;;;;;18.48;60.19;99946.59;4289451;33;20101;-83
2023/05/26 04:20:56;;;;;;;21.10;13.27;;;;;;;18.47;60.19;99944.91;4289522;33;20113;-83
2023/05/26 04:23:21;;;;;;;21.95;12.95;;;;;;;18.45;60.19;99945.91;4288960;33;31019;-84
2023/05/26 04:25:48;;;;;;;18.85;12.48;;;;;;;18.57;60.20;99948.66;4289080;33;26259;-83
2023/05/26 04:28:14;;;;;;;22.65;13.77;;;;;;;18.70;60.21;99948.78;4289552;33;20508;-83
2023/05/26 04:30:40;;;;;;;24.37;13.62;;;;;;;18.79;60.20;99950.00;4289488;33;20153;-82
2023/05/26 04:33:07;;;;;;;20.85;12.77;;;;;;;18.69;60.21;99950.59;4289262;33;20093;-84
2023/05/26 04:35:33;;;;;;;22.75;12.70;;;;;;;18.79;60.21;99953.50;4289276;33;20126;-84
2023/05/26 04:37:58;;;;;;;22.83;13.45;;;;;;;18.93;60.22;99955.28;4289161;33;20168;-84
2023/05/26 04:40:24;;;;;;;21.30;13.95;;;;;;;18.72;60.20;99951.34;4289223;33;20093;-84
2023/05/26 04:42:49;;;;;;;19.48;12.90;;;;;;;18.66;60.19;99948.13;4288882;33;20108;-84
2023/05/26 04:45:15;;;;;;;20.40;12.73;;;;;;;18.79;60.20;99950.00;4288555;33;38169;-84
2023/05/26 04:47:42;;;;;;;23.33;14.13;;;;;;;18.81;60.20;99954.22;4289489;33;20144;-84
2023/05/26 04:50:12;;;;;;;20.90;13.00;;;;;;;18.97;60.21;99949.69;4289267;33;20215;-83
2023/05/26 04:52:41;;;;;;;22.98;14.00;;;;;;;18.85;60.21;99952.25;4289339;33;20506;-83
2023/05/26 04:55:07;;;;;;;21.75;13.38;;;;;;;19.05;60.21;99949.19;4277270;33;20736;-84
2023/05/26 04:57:32;;;;;;;20.17;12.73;;;;;;;19.17;60.22;99950.22;4289215;33;20470;-84
2023/05/26 04:59:58;;;;;;;23.50;14.07;;;;;;;19.11;60.22;99955.87;4288760;33;23019;-84
2023/05/26 05:02:23;;;;;;;24.08;14.70;;;;;;;19.30;60.22;99957.22;4288833;33;20144;-84
2023/05/26 05:04:50;;;;;;;23.77;14.82;;;;;;;19.24;60.23;99952.34;4289353;33;20410;-84
2023/05/26 05:07:15;;;;;;;21.92;13.70;;;;;;;19.36;60.23;99953.34;4289005;33;20159;-83
2023/05/26 05:09:41;;;;;;;23.40;14.00;;;;;;;19.19;60.22;99957.09;4288605;33;22235;-84
2023/05/26 05:12:06;;;;;;;22.52;15.15;;;;;;;19.36;60.23;99955.13;4288385;33;30962;-84
2023/05/26 05:14:32;;;;;;;30.83;15.40;;;;;;;19.48;60.24;99959.62;4289133;33;20156;-84
2023/05/26 05:16:58;;;;;;;27.37;15.57;;;;;;;19.25;60.23;99961.13;4279083;33;20514;-84
2023/05/26 05:19:23;;;;;;;25.00;14.75;;;;;;;19.41;60.24;99956.56;4289370;33;20133;-84
2023/05/26 05:21:48;;;;;;;24.90;14.82;;;;;;;19.13;60.22;99961.91;4288686;33;24116;-84
2023/05/26 05:24:14;;;;;;;27.15;15.18;;;;;;;19.24;60.23;99962.91;4295159;33;20185;-84
2023/05/26 05:26:39;;;;;;;24.73;15.38;;;;;;;19.19;60.23;99965.00;4288874;33;20104;-84
2023/05/26 05:29:05;;;;;;;28.17;14.90;;;;;;;19.27;60.23;99961.88;4289368;33;20157;-84
2023/05/26 05:31:30;;;;;;;23.60;15.02;;;;;;;19.35;60.24;99962.22;4288315;33;23237;-85
2023/05/26 05:33:56;;;;;;;24.55;14.30;;;;;;;19.48;60.25;99962.28;4277137;33;20737;-85
2023/05/26 05:36:21;;;;;;;27.13;14.93;;;;;;;19.39;60.24;99962.84;4288223;33;25781;-84
2023/05/26 05:38:46;;;;;;;25.02;14.73;;;;;;;19.52;60.24;99961.97;4288477;33;20949;-84
2023/05/26 05:41:14;;;;;;;23.92;14.65;;;;;;;19.45;60.23;99962.47;4289728;33;20149;-83
2023/05/26 05:43:39;;;;;;;23.27;15.27;;;;;;;19.50;60.24;99961.22;4288752;33;20418;-84
2023/05/26 05:46:05;;;;;;;23.77;15.48;;;;;;;19.61;60.24;99957.91;4290049;33;20152;-83
2023/05/26 05:48:30;;;;;;;21.58;14.20;;;;;;;19.83;60.26;99962.59;4277053;33;20157;-83
2023/05/26 05:50:55;;;;;;;33.50;15.73;;;;;;;19.85;60.25;99965.97;4288530;33;20101;-82
2023/05/26 05:53:21;;;;;;;24.12;14.27;;;;;;;20.01;60.26;99963.16;4288665;33;20122;-83
2023/05/26 05:55:46;;;;;;;24.60;13.40;;;;;;;20.10;60.28;99962.53;4288894;33;20155;-84
2023/05/26 05:58:13;;;;;;;20.85;13.90;;;;;;;20.24;60.29;99967.75;4282350;33;22000;-83
2023/05/26 06:00:38;;;;;;;26.20;14.98;;;;;;;20.36;60.29;99971.34;4275410;33;20111;-84
2023/05/26 06:03:04;;;;;;;25.35;14.32;;;;;;;20.38;60.28;99967.66;4288786;33;20112;-84
2023/05/26 06:05:29;;;;;;;22.20;13.68;;;;;;;20.46;60.29;99969.78;4288694;33;20093;-84
2023/05/26 06:07:55;;;;;;;22.58;14.05;;;;;;;20.70;60.31;99978.66;4288486;33;25514;-84
2023/05/26 06:10:20;;;;;;;21.75;12.90;;;;;;;20.89;60.31;99975.56;4277019;33;20120;-84
2023/05/26 06:12:46;;;;;;;23.25;13.90;;;;;;;21.13;60.33;99979.09;4288768;33;20127;-84
2023/05/26 06:15:11;;;;;;;21.77;13.52;;;;;;;21.19;60.34;99979.59;4288116;33;22424;-84
2023/05/26 06:17:36;;;;;;;26.85;14.25;;;;;;;21.36;60.34;99979.28;4289049;33;20177;-84
2023/05/26 06:20:02;;;;;;;21.98;12.88;;;;;;;21.33;60.34;99983.00;4288373;33;23647;-84
2023/05/26 06:22:27;;;;;;;20.35;13.38;;;;;;;21.43;60.34;99989.28;4288734;33;20084;-84
2023/05/26 06:24:52;;;;;;;25.42;13.05;;;;;;;21.56;60.34;99991.91;4287915;33;23586;-83
2023/05/26 06:27:18;;;;;;;19.58;13.27;;;;;;;21.56;60.34;99991.06;4283986;33;20128;-84
2023/05/26 06:29:43;;;;;;;19.40;12.93;;;;;;;21.65;60.36;99991.22;4288305;33;21636;-81
2023/05/26 06:32:09;;;;;;;20.15;12.85;;;;;;;21.81;60.36;99984.78;4287566;33;20118;-79
2023/05/26 06:34:34;;;;;;;23.40;13.45;;;;;;;21.83;60.37;99985.50;4288994;33;20454;-83
2023/05/26 06:36:59;;;;;;;20.33;13.38;;;;;;;22.02;60.38;99994.63;4276618;33;20699;-81
2023/05/26 06:39:25;;;;;;;21.95;13.18;;;;;;;22.16;60.38;99982.12;4288667;33;26145;-81
2023/05/26 06:41:50;;;;;;;19.00;12.07;;;;;;;22.52;60.40;99976.66;4288657;33;20173;-82
2023/05/26 06:44:16;;;;;;;21.45;12.00;;;;;;;22.55;60.39;99979.06;4287978;33;20163;-82
2023/05/26 06:46:41;;;;;;;16.73;10.90;;;;;;;22.65;60.41;99976.53;4288610;33;20123;-82
2023/05/26 06:49:07;;;;;;;16.67;11.05;;;;;;;22.73;60.41;99979.44;4288149;33;20435;-83
2023/05/26 06:51:32;;;;;;;19.73;12.20;;;;;;;23.03;60.42;99980.66;4287941;33;20164;-81
2023/05/26 06:53:57;;;;;;;19.15;12.05;;;;;;;23.20;60.44;99983.66;4288140;33;29272;-84
2023/05/26 06:56:25;;;;;;;19.33;11.10;;;;;;;23.39;60.44;99980.31;4288065;33;20126;-84
2023/05/26 06:58:51;;;;;;;16.50;10.50;;;;;;;23.55;60.45;99985.25;4288684;33;20129;-84
2023/05/26 07:01:16;;;;;;;16.33;10.63;;;;;;;23.60;60.46;99988.41;4288566;33;20123;-82
2023/05/26 07:03:42;;;;;;;14.73;10.65;;;;;;;23.73;60.46;99980.25;4286755;33;20109;-81
2023/05/26 07:06:07;;;;;;;20.77;11.25;;;;;;;23.84;60.47;99982.84;4289415;33;20084;-87
2023/05/26 07:08:33;;;;;;;15.30;10.32;;;;;;;23.94;60.47;99986.44;4288402;33;20132;-85
2023/05/26 07:10:58;;;;;;;15.82;10.77;;;;;;;24.16;60.48;99981.00;4278267;33;20127;-84
2023/05/26 07:13:24;;;;;;;15.07;10.73;;;;;;;24.24;60.49;99990.16;4289638;33;20825;-83
2023/05/26 07:15:49;;;;;;;15.40;10.20;;;;;;;24.25;60.49;99992.69;4288562;33;20144;-83
2023/05/26 07:18:14;;;;;;;18.02;9.43;;;;;;;24.35;60.49;99987.44;4287939;33;22359;-84
2023/05/26 07:20:40;;;;;;;13.07;9.80;;;;;;;24.50;60.50;99988.78;4282707;33;20100;-83
2023/05/26 07:23:05;;;;;;;17.10;10.27;;;;;;;24.61;60.51;99991.38;4289182;33;20164;-85
2023/05/26 07:25:31;;;;;;;16.15;10.10;;;;;;;24.75;60.51;99988.34;4287933;33;20109;-83
2023/05/26 07:27:56;;;;;;;15.77;9.00;;;;;;;24.67;60.50;99985.53;4289619;33;20100;-85
2023/05/26 07:30:22;;;;;;;12.77;8.85;;;;;;;24.78;60.52;99988.09;4275777;33;20101;-83
2023/05/26 07:32:47;;;;;;;11.10;8.57;;;;;;;24.95;60.53;99988.44;4289003;33;20415;-84
2023/05/26 07:35:12;;;;;;;12.65;8.80;;;;;;;25.01;60.53;99986.09;4275581;33;20152;-84
2023/05/26 07:37:38;;;;;;;18.42;8.70;;;;;;;25.42;60.55;99988.72;4273599;33;20167;-85
2023/05/26 07:40:04;;;;;;;16.65;8.93;;;;;;;25.42;60.55;99986.91;4289136;33;20131;-83
2023/05/26 07:42:30;;;;;;;13.95;7.70;;;;;;;25.51;60.55;99987.88;4287871;33;20112;-84
2023/05/26 07:44:56;;;;;;;14.13;8.90;;;;;;;25.29;60.54;99984.47;4287714;33;20108;-83
2023/05/26 07:47:22;;;;;;;13.38;9.73;;;;;;;25.51;60.55;99990.53;4287209;33;22835;-84
2023/05/26 07:49:48;;;;;;;13.85;8.65;;;;;;;25.57;60.56;99985.53;4275776;33;20092;-87
2023/05/26 07:52:13;;;;;;;13.48;8.35;;;;;;;25.42;60.55;99988.72;4275801;33;20093;-84
2023/05/26 07:54:40;;;;;;;11.90;8.13;;;;;;;25.30;60.54;99986.16;4289118;33;20439;-82
2023/05/26 07:57:05;;;;;;;15.30;8.50;;;;;;;25.26;60.55;99982.09;4289107;33;20172;-83
2023/05/26 07:59:30;;;;;;;12.30;9.13;;;;;;;25.27;60.54;99983.78;4289255;33;20112;-84
2023/05/26 08:01:56;;;;;;;13.10;8.15;;;;;;;25.57;60.56;99988.19;4288710;33;20142;-83
2023/05/26 08:04:21;;;;;;;12.63;8.85;;;;;;;25.49;60.56;99985.34;4287769;33;20531;-84
2023/05/26 08:06:46;;;;;;;12.55;8.93;;;;;;;25.55;60.56;99987.50;4263548;33;20141;-84
2023/05/26 08:09:12;;;;;;;13.82;8.75;;;;;;;25.68;60.57;99977.41;4288864;33;20132;-84
2023/05/26 08:11:37;;;;;;;14.38;7.93;;;;;;;25.85;60.57;99981.22;4288696;33;20092;-84
2023/05/26 08:14:03;;;;;;;9.05;7.00;;;;;;;26.09;60.58;99980.75;4287672;33;20195;-84
2023/05/26 08:16:28;;;;;;;12.85;8.07;;;;;;;26.24;60.59;99983.81;4288364;33;20156;-84
2023/05/26 08:18:54;;;;;;;14.60;8.00;;;;;;;26.38;60.60;99987.91;4288838;33;20109;-84
2023/05/26 08:21:19;;;;;;;13.23;8.15;;;;;;;26.35;60.60;99988.19;4263290;33;20160;-84
2023/05/26 08:23:44;;;;;;;13.23;7.37;;;;;;;26.30;60.59;99992.09;4289026;33;20459;-83
2023/05/26 08:26:10;;;;;;;11.95;7.93;;;;;;;26.35;60.60;99982.84;4287389;33;20136;-81
2023/05/26 08:28:35;;;;;;;17.10;8.20;;;;;;;26.33;60.60;99982.97;4288293;33;20483;-81
2023/05/26 08:31:01;;;;;;;9.45;7.43;;;;;;;26.44;60.61;99981.97;4287852;33;20100;-82
2023/05/26 08:33:26;;;;;;;9.95;7.37;;;;;;;26.69;60.62;99984.00;4287084;33;20144;-84
2023/05/26 08:35:52;;;;;;;13.50;6.80;;;;;;;26.69;60.62;99975.97;4275406;33;20081;-83
2023/05/26 08:38:17;;;;;;;12.52;7.32;;;;;;;26.53;60.61;99983.78;4274430;33;20123;-83
2023/05/26 08:40:42;;;;;;;15.15;7.78;;;;;;;26.80;60.63;99974.97;4287270;33;20452;-82
2023/05/26 08:43:09;;;;;;;11.38;7.25;;;;;;;27.09;60.64;99977.53;4274515;33;20448;-82
2023/05/26 08:45:35;;;;;;;11.80;7.55;;;;;;;27.30;60.65;99982.59;4273403;33;20197;-83
2023/05/26 08:48:01;;;;;;;10.50;6.75;;;;;;;27.59;60.67;99977.87;4273223;33;20105;-83
2023/05/26 08:50:29;;;;;;;12.25;7.40;;;;;;;27.44;60.66;99982.06;4285123;33;20096;-83
2023/05/26 08:52:54;;;;;;;11.85;7.97;;;;;;;27.73;60.67;99984.56;4267317;33;20168;-83
2023/05/26 08:55:20;;;;;;;11.30;7.45;;;;;;;28.14;60.70;99972.34;4290211;33;20112;-83
2023/05/26 08:57:45;;;;;;;11.68;7.75;;;;;;;28.45;60.71;99971.94;4290239;33;20434;-84
2023/05/26 09:00:12;;;;;;;14.55;8.43;;;;;;;28.50;60.72;99969.63;4289208;33;20379;-85
2023/05/26 09:02:38;;;;;;;11.32;7.85;;;;;;;28.51;60.71;99969.47;4290349;33;20168;-84
2023/05/26 09:05:04;;;;;;;12.48;8.38;;;;;;;28.38;60.71;99969.87;4290364;33;20078;-84
2023/05/26 09:07:29;;;;;;;10.93;8.02;;;;;;;28.42;60.71;99959.72;4289062;33;20132;-84
2023/05/26 09:09:56;;;;;;;10.73;8.10;;;;;;;28.66;60.72;99969.72;4289127;33;20131;-84
2023/05/26 09:12:22;;;;;;;14.25;8.50;;;;;;;28.56;60.72;99964.47;4265084;33;20135;-84
2023/05/26 09:14:47;;;;;;;15.82;8.02;;;;;;;28.41;60.71;99961.56;4290556;33;20129;-85
2023/05/26 09:17:13;;;;;;;11.25;8.55;;;;;;;28.55;60.72;99956.59;4290223;33;20084;-85
2023/05/26 09:19:38;;;;;;;10.30;7.68;;;;;;;28.51;60.71;99960.59;4289196;33;20470;-84
2023/05/26 09:22:10;;;;;;;13.45;9.18;;;;;;;28.34;60.71;99965.84;4290069;33;20415;-83
2023/05/26 09:24:46;;;;;;;16.60;9.07;;;;;;;28.38;60.72;99967.19;4288589;33;20096;-86
2023/05/26 09:27:22;;;;;;;11.38;7.68;;;;;;;28.10;60.70;99971.00;4290235;33;20092;-84
2023/05/26 09:29:55;;;;;;;13.32;7.65;;;;;;;28.26;60.71;99970.31;4288568;33;20576;-88
2023/05/26 09:32:25;;;;;;;10.13;7.68;;;;;;;28.43;60.71;99967.59;4288813;33;20569;-83
2023/05/26 09:34:51;;;;;;;12.40;8.68;;;;;;;28.75;60.73;99971.41;4290131;33;20096;-84
2023/05/26 09:37:16;;;;;;;13.32;8.18;;;;;;;29.14;60.75;99954.87;4290259;33;20509;-87
2023/05/26 09:39:42;;;;;;;15.35;8.50;;;;;;;29.21;60.75;99963.91;4288349;33;20088;-86
2023/05/26 09:42:08;;;;;;;10.80;8.07;;;;;;;29.25;60.76;99963.44;4276466;33;20172;-85
2023/05/26 09:44:33;;;;;;;12.27;8.45;;;;;;;29.11;60.75;99963.22;4288465;33;20447;-84
2023/05/26 09:46:59;;;;;;;13.32;8.40;;;;;;;29.10;60.75;99962.37;4288837;33;20112;-85
2023/05/26 09:49:24;;;;;;;11.05;7.82;;;;;;;29.40;60.75;99955.59;4278854;33;20112;-86
2023/05/26 09:51:50;;;;;;;13.70;7.95;;;;;;;29.73;60.78;99955.66;4276784;33;20177;-82
2023/05/26 09:54:15;;;;;;;10.02;7.45;;;;;;;29.98;60.80;99948.44;4288658;33;20144;-83
2023/05/26 09:57:02;;;;;;;13.45;8.32;;;;;;;30.52;60.82;99942.34;4288993;33;20080;-82
2023/05/26 09:59:32;;;;;;;10.52;7.85;;;;;;;30.30;60.81;99940.37;4270047;33;20168;-81
2023/05/26 10:01:58;;;;;;;11.32;8.60;;;;;;;30.40;60.81;99948.22;4288391;33;20109;-84
2023/05/26 10:04:23;;;;;;;10.60;7.82;;;;;;;30.13;60.80;99944.94;4276833;33;20115;-83
2023/05/26 10:06:50;;;;;;;9.23;7.40;;;;;;;30.34;60.81;99944.38;4289681;33;20115;-82
2023/05/26 10:09:15;;;;;;;13.27;7.80;;;;;;;30.66;60.82;99943.47;4276686;33;20100;-83
2023/05/26 10:11:43;;;;;;;13.10;7.97;;;;;;;30.94;60.84;99943.00;4289268;33;20167;-82
2023/05/26 10:14:08;;;;;;;11.32;7.68;;;;;;;31.32;60.86;99931.41;4288918;33;20085;-84
2023/05/26 10:16:34;;;;;;;11.52;8.48;;;;;;;31.48;60.87;99937.69;4288527;33;20120;-84
2023/05/26 10:18:59;;;;;;;9.63;7.35;;;;;;;31.34;60.86;99936.59;4288770;33;20528;-82
2023/05/26 10:21:28;;;;;;;16.83;8.55;;;;;;;31.21;60.85;99933.66;4288953;33;27981;-86
2023/05/26 10:24:16;;;;;;;10.27;8.35;;;;;;;31.48;60.87;99924.25;4264646;33;20104;-83
2023/05/26 10:26:54;;;;;;;12.00;8.48;;;;;;;31.43;60.87;99932.84;4288516;33;20602;-85
2023/05/26 10:29:21;;;;;;;13.98;8.43;;;;;;;31.31;60.87;99932.41;4288538;33;20104;-85
2023/05/26 10:31:47;;;;;;;11.45;8.48;;;;;;;30.91;60.84;99930.75;4276491;33;20100;-85
2023/05/26 10:34:13;;;;;;;11.98;7.85;;;;;;;30.71;60.84;99935.72;4290215;33;20160;-85
2023/05/26 10:36:38;;;;;;;10.18;7.65;;;;;;;30.68;60.83;99925.31;4289804;33;20085;-86
2023/05/26 10:39:09;;;;;;;13.00;8.05;;;;;;;31.15;60.86;99933.31;4288699;33;20093;-86
2023/05/26 10:41:36;;;;;;;14.25;8.82;;;;;;;31.32;60.87;99922.50;4279603;33;20100;-84
2023/05/26 10:44:02;;;;;;;9.57;8.18;;;;;;;31.28;60.86;99921.19;4288476;33;20085;-84
2023/05/26 10:46:45;;;;;;;10.95;8.75;;;;;;;31.00;60.86;99928.88;4288597;33;20167;-85
2023/05/26 10:49:20;;;;;;;10.40;8.15;;;;;;;30.85;60.84;99920.72;4288200;33;20130;-85
2023/05/26 10:51:53;;;;;;;10.60;8.02;;;;;;;30.53;60.83;99925.19;4273764;33;20104;-84
2023/05/26 10:54:24;;;;;;;12.10;8.13;;;;;;;30.38;60.82;99926.06;4275139;33;20455;-82
2023/05/26 10:56:51;;;;;;;19.42;8.55;;;;;;;30.57;60.83;99923.00;4275659;33;20089;-83
2023/05/26 10:59:43;;;;;;;9.93;7.47;;;;;;;30.46;60.83;99917.97;4274998;33;20123;-82
2023/05/26 11:02:08;;;;;;;11.23;8.38;;;;;;;30.34;60.82;99922.06;4261255;33;20172;-84
2023/05/26 11:04:46;;;;;;;11.85;7.47;;;;;;;30.18;60.80;99914.88;4275431;33;20089;-83
2023/05/26 11:07:16;;;;;;;10.30;7.72;;;;;;;30.08;60.80;99917.75;4275055;33;20455;-83
2023/05/26 11:09:57;;;;;;;10.32;6.95;;;;;;;30.23;60.81;99910.66;4274980;33;20126;-83
2023/05/26 11:12:22;;;;;;;13.05;7.95;;;;;;;30.41;60.82;99910.44;4285660;33;20123;-86
2023/05/26 11:14:48;;;;;;;8.80;7.37;;;;;;;30.55;60.83;99909.75;4273505;33;20101;-85
2023/05/26 11:17:14;;;;;;;8.70;7.40;;;;;;;30.70;60.84;99904.50;4273740;33;20152;-82
2023/05/26 11:19:39;;;;;;;10.38;7.72;;;;;;;31.00;60.85;99910.91;4273668;33;20143;-82